Garrett Park, Maryland
Current Conditions -  °F | °C
As of 11:15 AM on Monday 24 Nov 2014 (Local Time) from KGAI Reporting Station
Broken Clouds Broken Clouds  
Wind Chill: 64°   Ceiling: 2500
Heat Index: 64°   Visibility: 10mi
Dew Point: 55°   Wind: 12mph
Humidity: 73%   Direction: 200°SSW
Pressure: 29.7"   Gusts: 25mph
Location:  39.04°N, 77.09°W
Report Text: KGAI 241615Z 20010G22KT 10SM BKN025 18/13 A2970 RMK AO1
Loading
Personal Weather Stations






























Interactive Weather Map New forecast layout! Learn more

10-Day Weather Forecast

Advertisements
Track Severe Weather on mobile